createdAt,value
2022-08-04T00:01:51.147Z,3.95
2022-08-04T00:07:01.304Z,5.75
2022-08-04T00:12:07.790Z,8.35
2022-08-04T00:17:10.541Z,9.80
2022-08-04T00:22:14.657Z,5.63
2022-08-04T00:27:19.122Z,3.58
2022-08-04T00:32:33.929Z,5.15
2022-08-04T00:37:38.567Z,5.97
2022-08-04T00:42:58.344Z,3.50
2022-08-04T00:48:14.612Z,4.32
2022-08-04T00:53:32.540Z,4.35
2022-08-04T01:04:04.941Z,9.05
2022-08-04T01:09:35.386Z,5.32
2022-08-04T01:14:53.423Z,4.47
2022-08-04T01:20:03.336Z,5.75
2022-08-04T01:25:30.278Z,7.65
2022-08-04T01:30:41.502Z,6.03
2022-08-04T01:35:49.828Z,4.88
2022-08-04T01:40:54.626Z,4.10
2022-08-04T01:46:01.458Z,4.25
2022-08-04T01:51:06.425Z,3.78
2022-08-04T01:56:11.574Z,4.10
2022-08-04T02:01:15.695Z,4.50
2022-08-04T02:06:32.438Z,3.85
2022-08-04T02:11:35.464Z,4.00
2022-08-04T02:16:52.722Z,4.43
2022-08-04T02:21:59.129Z,4.65
2022-08-04T02:27:06.268Z,4.72
2022-08-04T02:32:16.419Z,4.03
2022-08-04T02:37:19.515Z,4.57
2022-08-04T02:42:23.658Z,4.43
2022-08-04T02:48:29.085Z,4.70
2022-08-04T02:52:53.384Z,4.90
2022-08-04T02:57:59.290Z,4.85
2022-08-04T03:03:22.078Z,3.97
2022-08-04T03:09:01.077Z,3.70
2022-08-04T03:14:50.782Z,3.90
2022-08-04T03:20:34.636Z,3.25
2022-08-04T03:26:15.683Z,4.68
2022-08-04T03:31:48.695Z,5.25
2022-08-04T03:37:23.009Z,5.20
2022-08-04T03:42:57.878Z,4.68
2022-08-04T03:48:21.776Z,4.07
2022-08-04T03:53:40.542Z,3.88
2022-08-04T03:59:20.760Z,3.65
2022-08-04T04:04:47.371Z,4.10
2022-08-04T04:10:28.735Z,3.60
2022-08-04T04:15:52.184Z,4.18
2022-08-04T04:21:10.838Z,4.72
2022-08-04T04:26:37.138Z,4.90
2022-08-04T04:31:58.617Z,4.32
2022-08-04T04:37:18.485Z,4.28
2022-08-04T04:42:37.346Z,4.63
2022-08-04T04:48:05.922Z,4.45
2022-08-04T04:53:21.823Z,3.35
2022-08-04T04:58:28.132Z,3.83
2022-08-04T05:03:44.651Z,3.47
2022-08-04T05:09:01.571Z,4.03
2022-08-04T05:14:35.949Z,3.72
2022-08-04T05:19:46.772Z,4.22
2022-08-04T05:30:02.305Z,3.77
2022-08-04T05:35:10.263Z,4.30
2022-08-04T05:40:14.698Z,3.30
2022-08-04T05:45:20.285Z,3.38
2022-08-04T05:50:24.853Z,3.60
2022-08-04T05:55:49.046Z,3.38
2022-08-04T06:00:54.505Z,3.67
2022-08-04T06:05:59.711Z,3.70
2022-08-04T06:11:07.241Z,3.70
2022-08-04T06:16:28.535Z,3.17
2022-08-04T06:21:34.886Z,3.83
2022-08-04T06:26:40.335Z,3.88
2022-08-04T06:32:30.488Z,3.45
2022-08-04T06:42:22.078Z,3.65
2022-08-04T06:47:30.206Z,3.63
2022-08-04T06:52:33.176Z,3.20
2022-08-04T06:57:39.302Z,3.00
2022-08-04T07:02:45.813Z,3.85
2022-08-04T07:07:56.977Z,3.28
2022-08-04T07:13:02.478Z,2.72
2022-08-04T07:18:06.833Z,2.95
2022-08-04T07:23:11.975Z,2.80
2022-08-04T07:28:15.222Z,2.60
2022-08-04T07:33:20.358Z,2.50
2022-08-04T07:38:27.536Z,2.78
2022-08-04T07:43:32.295Z,2.53
2022-08-04T07:48:36.760Z,2.88
2022-08-04T07:53:55.047Z,2.50
2022-08-04T07:58:59.393Z,2.63
2022-08-04T08:04:06.568Z,2.55
2022-08-04T08:09:12.882Z,2.60
2022-08-04T08:14:17.911Z,2.63
2022-08-04T08:19:24.535Z,2.63
2022-08-04T08:24:27.659Z,2.80
2022-08-04T08:29:31.313Z,2.45
2022-08-04T08:34:35.902Z,2.88
2022-08-04T08:39:43.515Z,2.70
2022-08-04T08:45:31.310Z,2.67
2022-08-04T08:51:04.003Z,2.88
2022-08-04T08:56:31.383Z,2.90
2022-08-04T09:01:50.178Z,2.42
2022-08-04T09:07:23.280Z,2.80
2022-08-04T09:12:31.292Z,2.42
2022-08-04T09:17:41.871Z,2.33
2022-08-04T09:22:51.775Z,3.35
2022-08-04T09:27:56.802Z,3.50
2022-08-04T09:33:08.639Z,2.15
2022-08-04T09:38:20.006Z,2.15
2022-08-04T09:43:57.034Z,2.63
2022-08-04T09:49:06.396Z,3.22
2022-08-04T09:54:30.217Z,2.88
2022-08-04T09:59:42.230Z,2.70
2022-08-04T10:04:46.479Z,1.80
2022-08-04T10:09:59.679Z,1.88
2022-08-04T10:15:12.039Z,1.48
2022-08-04T10:20:35.923Z,2.08
2022-08-04T10:26:07.241Z,1.50
2022-08-04T10:31:20.417Z,1.80
2022-08-04T10:36:28.357Z,1.75
2022-08-04T10:41:40.869Z,1.90
2022-08-04T10:46:52.351Z,1.23
2022-08-04T10:52:03.067Z,1.50
2022-08-04T10:57:09.978Z,1.30
2022-08-04T11:02:27.075Z,1.30
2022-08-04T11:07:36.461Z,1.67
2022-08-04T11:12:43.668Z,1.45
2022-08-04T11:17:51.433Z,1.50
2022-08-04T11:23:04.211Z,1.52
2022-08-04T11:28:16.536Z,1.40
2022-08-04T11:33:25.203Z,1.48
2022-08-04T11:38:34.550Z,1.00
2022-08-04T11:44:01.329Z,1.45
2022-08-04T11:49:10.323Z,1.10
2022-08-04T11:54:15.628Z,1.33
2022-08-04T11:59:23.951Z,1.20
2022-08-04T12:04:35.846Z,1.50
2022-08-04T12:09:48.042Z,1.10
2022-08-04T12:15:00.820Z,1.20
2022-08-04T12:20:38.309Z,1.10
2022-08-04T12:25:35.436Z,1.13
2022-08-04T12:30:58.369Z,0.88
2022-08-04T12:36:21.400Z,0.75
2022-08-04T12:41:27.109Z,1.00
2022-08-04T12:46:34.090Z,0.80
2022-08-04T12:52:07.759Z,0.95
2022-08-04T12:57:05.257Z,1.30
2022-08-04T13:07:50.791Z,1.25
2022-08-04T13:12:57.343Z,1.50
2022-08-04T13:18:05.100Z,1.38
2022-08-04T13:23:10.595Z,0.80
2022-08-04T13:28:17.659Z,1.20
2022-08-04T13:33:24.632Z,1.05
2022-08-04T13:38:56.325Z,1.10
2022-08-04T13:44:17.500Z,1.27
2022-08-04T13:49:37.667Z,1.45
2022-08-04T13:54:48.769Z,1.02
2022-08-04T14:00:01.173Z,1.10
2022-08-04T14:05:18.689Z,1.05
2022-08-04T14:10:24.321Z,1.10
2022-08-04T14:16:01.485Z,1.17
2022-08-04T14:21:02.306Z,1.05
2022-08-04T14:26:15.870Z,0.90
2022-08-04T14:31:21.056Z,1.40
2022-08-04T14:36:25.479Z,1.60
2022-08-04T14:41:34.847Z,1.58
2022-08-04T14:46:51.688Z,1.42
2022-08-04T14:51:58.963Z,2.53
2022-08-04T14:57:05.499Z,1.83
2022-08-04T15:02:09.541Z,1.50
2022-08-04T15:07:14.456Z,1.60
2022-08-04T15:12:20.138Z,1.45
2022-08-04T15:17:29.989Z,1.73
2022-08-04T15:22:35.753Z,1.90
2022-08-04T15:27:41.534Z,1.90
2022-08-04T15:32:51.183Z,1.40
2022-08-04T15:38:03.848Z,1.48
2022-08-04T15:43:25.439Z,1.40
2022-08-04T15:48:28.958Z,1.20
2022-08-04T15:54:24.392Z,2.05
2022-08-04T16:00:00.305Z,1.20
2022-08-04T16:05:36.658Z,1.90
2022-08-04T16:10:43.277Z,1.95
2022-08-04T16:15:49.170Z,1.95
2022-08-04T16:20:52.330Z,1.75
2022-08-04T16:25:56.678Z,1.77
2022-08-04T16:31:03.855Z,1.60
2022-08-04T16:36:10.516Z,1.70
2022-08-04T16:41:41.963Z,2.00
2022-08-04T16:47:08.456Z,2.05
2022-08-04T16:52:13.348Z,1.77
2022-08-04T16:57:18.897Z,2.05
2022-08-04T17:02:47.024Z,2.35
2022-08-04T17:08:07.178Z,2.55
2022-08-04T17:14:03.803Z,1.93
2022-08-04T17:18:52.341Z,2.28
2022-08-04T17:34:26.483Z,2.38
2022-08-04T17:39:34.943Z,2.50
2022-08-04T17:44:43.556Z,3.40
2022-08-04T17:49:53.322Z,2.45
2022-08-04T17:55:02.657Z,2.00
2022-08-04T18:00:09.178Z,2.13
2022-08-04T18:05:31.871Z,2.42
2022-08-04T18:10:56.819Z,2.88
2022-08-04T18:16:12.570Z,1.88
2022-08-04T18:21:23.456Z,2.70
2022-08-04T18:26:27.879Z,2.13
2022-08-04T18:31:33.552Z,3.05
2022-08-04T18:36:39.037Z,1.95
2022-08-04T18:42:02.139Z,2.28
2022-08-04T18:47:22.551Z,2.83
2022-08-04T18:52:29.053Z,2.33
2022-08-04T18:58:01.174Z,2.63
2022-08-04T19:02:57.282Z,2.42
2022-08-04T19:13:25.630Z,2.75
2022-08-04T19:18:32.543Z,1.77
2022-08-04T19:24:27.516Z,2.20
2022-08-04T19:29:01.899Z,2.20
2022-08-04T19:34:07.413Z,1.73
2022-08-04T19:39:11.909Z,1.83
2022-08-04T19:44:14.958Z,2.30
2022-08-04T19:50:04.431Z,2.20
2022-08-04T19:54:42.419Z,2.22
2022-08-04T19:59:49.750Z,2.03
2022-08-04T20:04:59.381Z,2.05
2022-08-04T20:10:04.339Z,2.35
2022-08-04T20:15:08.300Z,2.72
2022-08-04T20:20:16.716Z,2.78
2022-08-04T20:25:36.065Z,2.33
2022-08-04T20:30:40.533Z,2.22
2022-08-04T20:36:00.622Z,2.70
2022-08-04T20:41:08.150Z,2.70
2022-08-04T20:46:17.879Z,2.38
2022-08-04T20:51:31.488Z,2.20
2022-08-04T20:56:36.769Z,2.42
2022-08-04T21:01:39.542Z,3.75
2022-08-04T21:06:50.253Z,2.58
2022-08-04T21:11:53.060Z,2.78
2022-08-04T21:16:57.615Z,2.20
2022-08-04T21:22:04.132Z,2.60
2022-08-04T21:27:09.786Z,3.00
2022-08-04T21:32:12.790Z,2.90
2022-08-04T21:37:18.136Z,2.70
2022-08-04T21:42:29.185Z,2.60
2022-08-04T21:47:46.489Z,3.08
2022-08-04T21:52:53.611Z,2.55
2022-08-04T21:57:58.734Z,2.50
2022-08-04T22:03:03.188Z,3.08
2022-08-04T22:08:07.541Z,3.72
2022-08-04T22:13:22.962Z,3.05
2022-08-04T22:18:27.820Z,3.25
2022-08-04T22:23:45.264Z,3.55
2022-08-04T22:28:49.614Z,3.60
2022-08-04T22:33:55.419Z,4.22
2022-08-04T22:39:06.937Z,4.47
2022-08-04T22:44:15.343Z,4.40
2022-08-04T22:49:18.939Z,4.28
2022-08-04T22:54:29.664Z,4.75
2022-08-04T22:59:34.540Z,4.90
2022-08-04T23:04:37.712Z,4.78
2022-08-04T23:09:50.061Z,5.00
2022-08-04T23:14:54.944Z,4.70
2022-08-04T23:20:00.038Z,4.07
2022-08-04T23:25:04.707Z,4.13
2022-08-04T23:30:08.422Z,5.00
2022-08-04T23:35:11.310Z,5.10
2022-08-04T23:40:32.722Z,4.55
2022-08-04T23:46:06.889Z,5.85
2022-08-04T23:51:04.351Z,5.60
2022-08-04T23:56:19.678Z,6.53
